Catàleg de serveis del Meteocat
Campanya meteocatpedra

Dades de l'estació automàtica Port de Barcelona - Bocana Sud

?
?
Resum diari 22:30 TU
Dades diàries de l'estació meteorològica
Ratxa màxima del vent (10 m) 37.8 km/h - 165º 13:46 TU

El tram horari està expressat en Temps Universal (TU). Cal sumar una hora en horari d'hivern i dues en horari d'estiu per passar a l'hora oficial.

Port de Barcelona - Bocana Sud

Metadades estació meteorol´gica
Municipi El Prat de Llobregat
Comarca Baix Llobregat
Altitud 3 m
Data alta 08.04.2015
Estat actual Operativa
Dades de període
Període
TU
VVM (10 m)
km/h
DVM (10 m)
graus
VVX (10 m)
km/h
00:00 - 00:30 10.8 242 18.0
00:30 - 01:00 8.6 243 11.9
01:00 - 01:30 8.3 242 10.4
01:30 - 02:00 10.1 235 16.6
02:00 - 02:30 9.0 260 11.5
02:30 - 03:00 5.0 272 9.7
03:00 - 03:30 4.7 320 8.6
03:30 - 04:00 3.2 4 10.4
04:00 - 04:30 14.8 34 18.7
04:30 - 05:00 9.0 18 15.1
05:00 - 05:30 16.2 30 22.7
05:30 - 06:00 20.2 14 26.6
06:00 - 06:30 13.7 352 18.7
06:30 - 07:00 12.2 356 15.1
07:00 - 07:30 14.0 360 17.6
07:30 - 08:00 17.6 16 22.3
08:00 - 08:30 14.0 44 19.4
08:30 - 09:00 19.8 84 29.5
09:00 - 09:30 22.7 92 29.5
09:30 - 10:00 16.6 65 22.0
10:00 - 10:30 10.1 115 22.3
10:30 - 11:00 11.9 139 19.8
11:00 - 11:30 15.1 153 21.2
11:30 - 12:00 19.1 156 28.8
12:00 - 12:30 25.6 159 33.8
12:30 - 13:00 28.8 158 37.1
13:00 - 13:30 30.2 163 37.4
13:30 - 14:00 32.0 161 37.8
14:00 - 14:30 30.2 163 36.7
14:30 - 15:00 27.0 159 33.1
15:00 - 15:30 26.3 157 33.1
15:30 - 16:00 18.4 147 27.4
16:00 - 16:30 14.4 141 21.6
16:30 - 17:00 13.0 138 22.7
17:00 - 17:30 11.9 138 17.6
17:30 - 18:00 10.4 139 18.0
18:00 - 18:30 11.2 143 17.3
18:30 - 19:00 11.2 147 16.2
19:00 - 19:30 12.6 157 16.2
19:30 - 20:00 12.2 159 15.8
20:00 - 20:30 10.4 170 13.3
20:30 - 21:00 9.7 178 12.2
21:00 - 21:30 8.6 197 12.2
21:30 - 22:00 7.6 204 9.7
22:00 - 22:30 8.6 216 10.8
22:30 - 23:00 9.0 245 12.2
23:00 - 23:30 (s/d) (s/d) (s/d)

Les dades en taronja només han passat un control de qualitat automàtic. Resta pendent la seva validació definitiva.